Time;durP1;ratioP1;P1;durP2;ratioP2;P2;SDS_P1;SDS_P2;PMS_P1;PMS_P2;Temp;Humidity;BMP_temperature;BMP_pressure;BME280_temperature;BME280_humidity;BME280_pressure;Samples;Min_cycle;Max_cycle;Signal;HPM_P1;HPM_P2
2021/03/27 00:00:14;;;;;;;3.90;1.13;;;;;;;14.16;100.00;101250.44;5038458;28;20029;-64
2021/03/27 00:02:49;;;;;;;2.65;1.10;;;;;;;14.15;100.00;101250.50;5039508;28;20163;-64
2021/03/27 00:05:17;;;;;;;4.50;1.40;;;;;;;13.91;100.00;101250.88;5035075;28;20036;-65
2021/03/27 00:08:04;;;;;;;3.80;1.08;;;;;;;13.91;100.00;101250.88;5037551;28;20029;-64
2021/03/27 00:10:46;;;;;;;5.50;1.20;;;;;;;13.92;100.00;101241.94;5035540;28;20078;-64
2021/03/27 00:13:30;;;;;;;3.83;1.10;;;;;;;13.94;100.00;101239.19;5041613;28;20029;-64
2021/03/27 00:16:11;;;;;;;2.95;1.20;;;;;;;13.91;100.00;101234.91;5033451;28;20083;-64
2021/03/27 00:18:47;;;;;;;9.68;2.28;;;;;;;13.69;100.00;101243.13;5034866;28;20049;-64
2021/03/27 00:21:25;;;;;;;4.90;1.13;;;;;;;13.78;100.00;101246.25;5037565;28;20033;-63
2021/03/27 00:23:58;;;;;;;4.53;1.17;;;;;;;13.63;100.00;101240.78;5018831;28;20092;-63
2021/03/27 00:26:33;;;;;;;4.10;1.30;;;;;;;13.74;100.00;101232.25;5020781;28;20052;-64
2021/03/27 00:29:07;;;;;;;6.22;1.40;;;;;;;13.62;100.00;101235.56;5026612;28;20044;-64
2021/03/27 00:31:44;;;;;;;4.40;1.40;;;;;;;13.54;100.00;101243.03;5025986;28;20032;-65
2021/03/27 00:34:18;;;;;;;2.88;1.20;;;;;;;13.48;100.00;101246.88;5023898;28;20394;-65
2021/03/27 00:36:47;;;;;;;7.95;1.63;;;;;;;13.44;100.00;101256.78;5024611;28;20025;-64
2021/03/27 00:39:23;;;;;;;4.32;1.63;;;;;;;13.33;100.00;101252.94;5021623;28;20030;-64
2021/03/27 00:41:54;;;;;;;5.22;1.60;;;;;;;13.19;100.00;101249.13;5022621;28;20071;-65
2021/03/27 00:44:24;;;;;;;6.88;1.33;;;;;;;13.16;100.00;101246.63;5020871;28;20064;-64
2021/03/27 00:46:51;;;;;;;5.35;2.45;;;;;;;13.10;100.00;101246.06;5018977;28;20076;-64
2021/03/27 00:49:21;;;;;;;6.28;1.63;;;;;;;13.02;100.00;101251.75;5022324;28;20048;-65
2021/03/27 00:51:51;;;;;;;7.45;1.80;;;;;;;12.93;100.00;101246.88;5021800;28;20036;-63
2021/03/27 00:54:53;;;;;;;6.38;1.52;;;;;;;12.84;100.00;101258.78;5020751;28;20047;-64
2021/03/27 00:57:28;;;;;;;7.93;1.60;;;;;;;13.01;100.00;101258.00;4969014;28;20585;-63
2021/03/27 01:00:08;;;;;;;3.28;1.77;;;;;;;13.11;100.00;101261.06;5022436;28;20042;-65
2021/03/27 01:02:39;;;;;;;9.25;2.22;;;;;;;13.15;100.00;101262.59;5021124;28;20029;-63
2021/03/27 01:05:08;;;;;;;4.45;1.85;;;;;;;13.06;100.00;101265.72;5028445;28;20081;-63
2021/03/27 01:07:36;;;;;;;4.28;2.00;;;;;;;13.18;100.00;101262.47;5021455;28;20055;-63
2021/03/27 01:10:08;;;;;;;5.55;1.92;;;;;;;13.01;100.00;101273.91;5023025;28;20099;-63
2021/03/27 01:12:39;;;;;;;5.35;2.17;;;;;;;13.01;100.00;101273.91;5024358;28;20026;-65
2021/03/27 01:15:11;;;;;;;7.70;2.67;;;;;;;12.87;100.00;101268.41;5024643;28;20033;-64
2021/03/27 01:17:42;;;;;;;10.27;2.00;;;;;;;12.85;100.00;101270.25;5023595;28;20850;-63
2021/03/27 01:20:22;;;;;;;5.70;2.05;;;;;;;13.03;100.00;101282.66;5024901;28;20045;-63
2021/03/27 01:22:50;;;;;;;6.57;2.20;;;;;;;13.02;100.00;101275.63;5028306;28;20410;-64
2021/03/27 01:25:27;;;;;;;4.43;2.20;;;;;;;13.03;100.00;101273.84;5033499;28;20056;-64
2021/03/27 01:28:18;;;;;;;5.45;2.17;;;;;;;12.86;100.00;101279.94;5035577;28;20116;-65
2021/03/27 01:31:02;;;;;;;9.00;2.65;;;;;;;12.81;100.00;101284.59;5043362;28;20075;-65
2021/03/27 01:33:39;;;;;;;5.90;2.80;;;;;;;12.81;100.00;101284.59;5035453;28;20025;-66
2021/03/27 01:36:11;;;;;;;8.88;2.88;;;;;;;12.72;100.00;101282.38;5035822;28;20024;-66
2021/03/27 01:38:55;;;;;;;5.45;2.38;;;;;;;12.86;100.00;101290.56;5034064;28;20017;-65
2021/03/27 01:41:33;;;;;;;6.65;1.92;;;;;;;13.01;100.00;101284.53;5036940;28;20036;-66
2021/03/27 01:44:14;;;;;;;5.30;2.60;;;;;;;12.82;100.00;101300.44;5035517;28;20040;-65
2021/03/27 01:47:04;;;;;;;12.73;3.28;;;;;;;12.84;100.00;101295.06;5035275;28;20029;-65
2021/03/27 01:50:07;;;;;;;6.57;1.90;;;;;;;12.85;100.00;101299.41;5035624;28;20116;-63
2021/03/27 01:52:47;;;;;;;4.90;2.20;;;;;;;12.85;100.00;101304.72;5035019;28;20483;-67
2021/03/27 01:55:32;;;;;;;10.20;2.38;;;;;;;12.83;100.00;101302.16;5032922;28;20025;-63
2021/03/27 01:58:23;;;;;;;6.78;2.05;;;;;;;12.88;100.00;101302.78;5037160;28;20060;-63
2021/03/27 02:01:02;;;;;;;13.07;2.08;;;;;;;12.94;100.00;101304.31;5033582;28;20039;-63
2021/03/27 02:03:30;;;;;;;5.18;2.13;;;;;;;12.79;100.00;101311.19;5036791;28;20486;-63
2021/03/27 02:06:11;;;;;;;6.50;1.90;;;;;;;12.72;100.00;101316.84;5038499;28;21078;-63
2021/03/27 02:08:49;;;;;;;7.50;2.25;;;;;;;12.82;100.00;101311.06;5033456;28;20116;-63
2021/03/27 02:11:33;;;;;;;5.03;2.13;;;;;;;12.75;100.00;101309.63;5031793;28;20410;-62
2021/03/27 02:14:17;;;;;;;8.57;2.75;;;;;;;12.70;100.00;101309.84;5035964;28;20048;-62
2021/03/27 02:17:01;;;;;;;4.93;1.73;;;;;;;12.68;100.00;101321.44;5034985;28;20032;-62
2021/03/27 02:19:48;;;;;;;10.70;1.70;;;;;;;12.68;100.00;101316.97;5031263;28;20032;-62
2021/03/27 02:22:34;;;;;;;6.10;1.88;;;;;;;12.63;100.00;101324.28;5033011;28;20528;-63
2021/03/27 02:25:32;;;;;;;9.27;2.60;;;;;;;12.67;100.00;101320.56;5041995;28;20029;-62
2021/03/27 02:28:40;;;;;;;7.35;2.10;;;;;;;12.58;100.00;101326.28;5044788;28;20028;-62
2021/03/27 02:31:40;;;;;;;7.40;2.13;;;;;;;12.59;100.00;101324.50;5037961;28;20033;-62
2021/03/27 02:34:33;;;;;;;8.80;2.50;;;;;;;12.62;100.00;101322.56;5038595;28;20442;-63
2021/03/27 02:37:20;;;;;;;17.45;4.45;;;;;;;12.52;100.00;101323.06;5038556;28;20071;-63
2021/03/27 02:39:58;;;;;;;9.27;2.30;;;;;;;12.41;100.00;101331.50;5042393;28;20343;-63
2021/03/27 02:42:24;;;;;;;6.85;2.10;;;;;;;12.37;100.00;101328.09;5038653;28;20037;-62
2021/03/27 02:44:59;;;;;;;10.50;1.53;;;;;;;12.47;100.00;101331.22;5040239;28;20947;-63
2021/03/27 02:47:41;;;;;;;;;;;;;;;12.56;100.00;101336.09;5039832;28;20501;-64
2021/03/27 02:50:43;;;;;;;7.55;2.00;;;;;;;12.37;100.00;101333.41;5041090;28;20681;-63
2021/03/27 02:53:33;;;;;;;6.78;2.05;;;;;;;12.37;100.00;101341.34;5037847;28;20025;-62
2021/03/27 02:56:23;;;;;;;11.48;2.85;;;;;;;12.53;100.00;101345.97;5043002;28;20056;-63
2021/03/27 02:59:07;;;;;;;9.27;1.73;;;;;;;12.47;100.00;101346.25;5039218;28;20111;-63
2021/03/27 03:01:45;;;;;;;10.75;2.10;;;;;;;12.35;100.00;101353.84;5040401;28;20025;-63
2021/03/27 03:04:17;;;;;;;7.10;1.38;;;;;;;12.57;100.00;101350.22;5037409;28;20087;-63
2021/03/27 03:07:01;;;;;;;9.35;1.98;;;;;;;12.40;100.00;101349.19;5038221;28;20025;-63
2021/03/27 03:09:38;;;;;;;9.68;2.22;;;;;;;12.49;100.00;101360.28;5046151;28;20095;-64
2021/03/27 03:12:22;;;;;;;8.73;1.75;;;;;;;12.44;100.00;101364.00;5043110;28;20041;-62
2021/03/27 03:15:00;;;;;;;10.85;2.67;;;;;;;12.36;100.00;101368.81;5023788;28;20036;-63
2021/03/27 03:17:48;;;;;;;7.35;2.28;;;;;;;12.43;100.00;101370.25;5050141;28;20028;-63
2021/03/27 03:20:38;;;;;;;11.85;2.30;;;;;;;12.26;100.00;101372.78;5041806;28;20021;-63
2021/03/27 03:23:39;;;;;;;7.95;2.42;;;;;;;12.32;100.00;101371.66;5046550;28;20120;-63
2021/03/27 03:26:34;;;;;;;20.13;3.45;;;;;;;12.25;100.00;101376.34;5039081;28;20028;-64
2021/03/27 03:29:13;;;;;;;8.70;2.13;;;;;;;12.49;100.00;101382.38;5044703;28;20029;-62
2021/03/27 03:32:00;;;;;;;7.88;2.40;;;;;;;12.45;100.00;101383.44;5045061;28;20104;-63
2021/03/27 03:34:58;;;;;;;11.25;2.08;;;;;;;12.54;100.00;101385.66;5043382;28;20025;-64
2021/03/27 03:37:49;;;;;;;10.75;1.95;;;;;;;12.55;100.00;101390.06;5049096;28;20463;-64
2021/03/27 03:40:30;;;;;;;8.55;1.75;;;;;;;12.59;100.00;101394.28;5039636;28;20086;-63
2021/03/27 03:43:14;;;;;;;10.48;2.38;;;;;;;12.40;100.00;101390.75;5042596;28;20056;-62
2021/03/27 03:45:50;;;;;;;4.93;1.65;;;;;;;12.67;100.00;101392.16;5040249;28;20031;-63
2021/03/27 03:48:43;;;;;;;6.93;1.80;;;;;;;12.66;100.00;101392.25;5043553;28;20036;-62
2021/03/27 03:51:45;;;;;;;12.52;2.65;;;;;;;12.61;100.00;101392.44;5048122;28;20108;-62
2021/03/27 03:54:24;;;;;;;8.95;2.33;;;;;;;12.58;100.00;101405.84;5036487;28;20137;-63
2021/03/27 03:57:04;;;;;;;7.80;2.00;;;;;;;12.52;100.00;101403.44;5043878;28;20037;-63
2021/03/27 03:59:35;;;;;;;4.10;1.48;;;;;;;12.39;100.00;101404.91;5047992;28;20454;-62
2021/03/27 04:02:13;;;;;;;12.20;1.75;;;;;;;12.42;100.00;101412.72;5041484;28;20045;-63
2021/03/27 04:04:46;;;;;;;7.65;2.70;;;;;;;12.51;100.00;101420.28;5043092;28;20491;-64
2021/03/27 04:07:18;;;;;;;11.48;2.20;;;;;;;12.50;100.00;101417.69;5042838;28;20052;-63
2021/03/27 04:09:55;;;;;;;9.25;1.83;;;;;;;12.59;100.00;101415.50;5042537;28;20471;-63
2021/03/27 04:12:30;;;;;;;13.73;2.00;;;;;;;12.56;100.00;101426.25;5041480;28;20033;-63
2021/03/27 04:15:22;;;;;;;14.82;3.15;;;;;;;12.65;100.00;101428.53;5043074;28;20030;-64
2021/03/27 04:18:18;;;;;;;11.57;1.92;;;;;;;12.66;100.00;101432.03;5040506;28;20530;-67
2021/03/27 04:20:46;;;;;;;7.15;1.58;;;;;;;12.74;100.00;101448.44;5041051;28;20025;-64
2021/03/27 04:23:42;;;;;;;11.68;2.35;;;;;;;12.66;100.00;101447.94;5044713;28;20107;-64
2021/03/27 04:26:23;;;;;;;10.07;2.00;;;;;;;12.73;100.00;101441.44;5042044;28;20501;-65
2021/03/27 04:29:22;;;;;;;7.60;1.63;;;;;;;12.85;100.00;101453.28;5041815;28;20029;-64
2021/03/27 04:32:10;;;;;;;10.23;3.63;;;;;;;12.82;100.00;101454.28;5047269;28;20037;-64
2021/03/27 04:34:48;;;;;;;8.35;2.10;;;;;;;12.79;100.00;101453.56;5041275;28;20423;-64
2021/03/27 04:37:25;;;;;;;18.73;3.60;;;;;;;12.76;100.00;101453.72;5043260;28;20515;-64
2021/03/27 04:40:03;;;;;;;8.68;2.33;;;;;;;12.79;100.00;101454.41;5045539;28;20494;-62
2021/03/27 04:42:44;;;;;;;12.95;2.42;;;;;;;12.90;100.00;101457.47;5046441;28;20383;-64
2021/03/27 04:45:27;;;;;;;9.30;1.70;;;;;;;12.92;100.00;101455.59;5044792;28;20039;-63
2021/03/27 04:48:16;;;;;;;9.35;1.80;;;;;;;12.90;100.00;101470.75;5043899;28;20095;-63
2021/03/27 04:50:56;;;;;;;10.48;1.92;;;;;;;12.88;100.00;101474.38;5043463;28;20068;-62
2021/03/27 04:53:31;;;;;;;8.45;1.70;;;;;;;12.88;100.00;101490.28;5044425;28;20063;-62
2021/03/27 04:56:05;;;;;;;15.20;2.65;;;;;;;12.65;100.00;101531.06;5039514;28;20033;-64
2021/03/27 04:58:55;;;;;;;7.80;1.77;;;;;;;12.41;100.00;101539.13;5037875;28;21060;-61
2021/03/27 05:01:53;;;;;;;7.28;1.40;;;;;;;12.33;100.00;101529.75;5045427;28;20052;-63
2021/03/27 05:04:30;;;;;;;7.07;1.75;;;;;;;12.38;100.00;101522.47;5044478;28;20802;-62
2021/03/27 05:07:05;;;;;;;10.10;2.03;;;;;;;12.25;100.00;101543.31;5043284;28;20059;-63
2021/03/27 05:09:33;;;;;;;5.90;1.55;;;;;;;12.25;100.00;101534.47;5044793;28;20021;-63
2021/03/27 05:12:15;;;;;;;3.58;1.38;;;;;;;12.22;100.00;101543.44;5035482;28;20032;-64
2021/03/27 05:14:46;;;;;;;9.20;1.40;;;;;;;12.29;100.00;101550.19;5044383;28;20052;-63
2021/03/27 05:17:22;;;;;;;7.32;1.42;;;;;;;12.46;100.00;101553.97;5041517;28;21026;-62
2021/03/27 05:20:08;;;;;;;3.75;1.38;;;;;;;12.58;100.00;101548.16;5046212;28;20071;-64
2021/03/27 05:22:55;;;;;;;3.83;1.75;;;;;;;12.71;100.00;101557.34;5037260;28;20045;-63
2021/03/27 05:25:28;;;;;;;5.05;1.38;;;;;;;12.80;100.00;101558.72;5023754;28;20021;-63
2021/03/27 05:28:14;;;;;;;6.30;1.40;;;;;;;12.82;100.00;101564.84;5020824;28;20100;-63
2021/03/27 05:30:51;;;;;;;;;;;;;;;12.90;100.00;101568.91;5025430;28;20025;-64
2021/03/27 05:33:54;;;;;;;8.40;1.40;;;;;;;12.84;100.00;101581.53;5023781;28;19987;-63
2021/03/27 05:36:28;;;;;;;5.82;1.40;;;;;;;12.67;100.00;101588.44;5022459;28;20128;-64
2021/03/27 05:39:01;;;;;;;6.75;1.55;;;;;;;12.62;100.00;101581.59;5020224;28;20750;-63
2021/03/27 05:41:50;;;;;;;8.10;1.48;;;;;;;12.63;100.00;101580.66;5022809;28;20044;-63
2021/03/27 05:44:34;;;;;;;5.90;1.27;;;;;;;12.47;100.00;101585.72;5020178;28;20499;-63
2021/03/27 05:47:20;;;;;;;4.85;1.33;;;;;;;12.28;100.00;101592.69;5026151;28;20037;-63
2021/03/27 05:50:03;;;;;;;8.50;1.83;;;;;;;12.38;100.00;101607.28;5022766;28;20398;-63
2021/03/27 05:52:34;;;;;;;3.28;1.30;;;;;;;12.46;100.00;101605.22;5021843;28;20418;-63
2021/03/27 05:55:06;;;;;;;11.00;1.63;;;;;;;12.37;100.00;101605.56;5009486;28;20033;-64
2021/03/27 05:57:44;;;;;;;7.07;1.60;;;;;;;12.26;100.00;101607.78;5027910;28;20079;-64
2021/03/27 06:00:16;;;;;;;4.15;1.17;;;;;;;12.36;100.00;101610.03;5025595;28;20045;-65
2021/03/27 06:03:14;;;;;;;10.68;1.77;;;;;;;12.29;100.00;101611.16;4994365;28;20038;-63
2021/03/27 06:05:58;;;;;;;4.43;1.33;;;;;;;12.49;100.00;101620.13;5021137;28;20164;-63
2021/03/27 06:08:26;;;;;;;4.45;1.33;;;;;;;12.66;100.00;101630.94;5017537;28;20029;-63
2021/03/27 06:11:19;;;;;;;9.25;2.50;;;;;;;12.64;100.00;101636.28;5018772;28;20033;-63
2021/03/27 06:14:08;;;;;;;6.82;1.60;;;;;;;12.63;100.00;101636.34;5018246;28;20059;-63
2021/03/27 06:16:42;;;;;;;9.07;1.45;;;;;;;12.74;100.00;101644.72;5016873;28;20125;-62
2021/03/27 06:19:19;;;;;;;6.22;1.50;;;;;;;12.68;100.00;101648.50;5020521;28;20045;-64
2021/03/27 06:22:03;;;;;;;7.53;1.80;;;;;;;12.59;100.00;101648.00;5024452;28;20061;-63
2021/03/27 06:24:54;;;;;;;4.97;1.20;;;;;;;12.71;100.00;101650.16;5032506;28;20029;-64
2021/03/27 06:27:40;;;;;;;6.45;1.50;;;;;;;12.81;100.00;101648.88;5034415;28;20386;-62
2021/03/27 06:30:28;;;;;;;7.03;1.48;;;;;;;12.79;100.00;101656.00;5037060;28;20033;-64
2021/03/27 06:33:00;;;;;;;33.67;2.38;;;;;;;12.87;100.00;101656.56;5031353;28;20137;-64
2021/03/27 06:35:51;;;;;;;6.00;1.42;;;;;;;12.90;100.00;101645.84;5035463;28;20056;-63
2021/03/27 06:38:44;;;;;;;13.35;2.63;;;;;;;12.95;100.00;101648.28;5033871;28;20051;-64
2021/03/27 06:41:35;;;;;;;10.93;2.63;;;;;;;12.92;100.00;101654.59;5025542;28;20493;-66
2021/03/27 06:44:14;;;;;;;9.70;2.83;;;;;;;12.77;100.00;101657.00;5041454;28;20041;-63
2021/03/27 06:47:13;;;;;;;14.70;2.85;;;;;;;12.77;100.00;101651.72;5036190;28;20045;-64
2021/03/27 06:49:58;;;;;;;4.72;1.40;;;;;;;12.76;100.00;101668.56;5038703;28;20040;-63
2021/03/27 06:52:50;;;;;;;8.80;2.25;;;;;;;12.87;100.00;101667.19;5037089;28;20025;-63
2021/03/27 06:55:44;;;;;;;5.95;1.95;;;;;;;12.86;100.00;101673.44;5036638;28;20041;-63
2021/03/27 06:58:22;;;;;;;12.40;2.05;;;;;;;12.94;100.00;101678.41;5039156;28;20389;-62
2021/03/27 07:01:30;;;;;;;8.88;1.63;;;;;;;13.02;100.00;101689.56;5038816;28;20486;-63
2021/03/27 07:04:39;;;;;;;9.55;2.13;;;;;;;12.90;100.00;101690.06;5041942;28;20082;-63
2021/03/27 07:07:34;;;;;;;6.47;1.65;;;;;;;12.83;100.00;101694.75;5035823;28;20069;-63
2021/03/27 07:10:21;;;;;;;10.57;1.90;;;;;;;12.81;100.00;101701.06;5035608;28;20075;-64
2021/03/27 07:12:54;;;;;;;13.90;2.03;;;;;;;12.83;100.00;101702.72;5037369;28;20033;-64
2021/03/27 07:15:49;;;;;;;6.32;1.77;;;;;;;12.83;100.00;101709.81;5038574;28;20031;-63
2021/03/27 07:18:56;;;;;;;14.68;3.50;;;;;;;12.71;100.00;101711.19;5036850;28;20529;-63
2021/03/27 07:21:53;;;;;;;13.45;1.95;;;;;;;12.84;100.00;101723.00;4999907;28;20048;-64
2021/03/27 07:24:56;;;;;;;11.68;1.67;;;;;;;12.82;100.00;101724.00;5034116;28;20050;-64
2021/03/27 07:27:28;;;;;;;14.93;2.10;;;;;;;12.66;100.00;101726.41;5036985;28;20552;-62
2021/03/27 07:30:08;;;;;;;15.05;2.72;;;;;;;12.59;100.00;101736.38;5039785;28;20167;-63
2021/03/27 07:32:52;;;;;;;9.30;1.80;;;;;;;12.67;100.00;101738.75;5038933;28;20049;-65
2021/03/27 07:35:57;;;;;;;9.55;2.10;;;;;;;12.74;100.00;101748.16;5034983;28;20035;-63
2021/03/27 07:38:41;;;;;;;11.75;1.83;;;;;;;12.62;100.00;101749.53;5035505;28;20025;-64
2021/03/27 07:41:59;;;;;;;13.65;2.20;;;;;;;12.55;100.00;101750.69;5041991;28;20033;-64
2021/03/27 07:45:00;;;;;;;8.15;2.05;;;;;;;12.64;100.00;101752.97;4982197;28;20447;-64
2021/03/27 07:47:40;;;;;;;11.57;2.15;;;;;;;12.65;100.00;101756.47;4983428;28;20664;-63
2021/03/27 07:50:20;;;;;;;10.25;2.25;;;;;;;12.70;100.00;101759.81;4982866;28;20093;-64
2021/03/27 07:53:12;;;;;;;10.35;2.00;;;;;;;12.99;100.00;101764.00;4980412;28;20053;-64
2021/03/27 07:56:14;;;;;;;12.88;1.95;;;;;;;13.04;100.00;101780.59;4982229;28;20039;-64
2021/03/27 07:59:19;;;;;;;9.75;2.58;;;;;;;12.90;100.00;101785.56;4982311;28;20070;-65
2021/03/27 08:02:06;;;;;;;7.63;1.75;;;;;;;12.65;100.00;101783.91;4982102;28;20038;-63
2021/03/27 08:05:09;;;;;;;17.83;2.60;;;;;;;12.39;100.00;101797.25;4980657;28;20030;-65
2021/03/27 08:08:04;;;;;;;6.03;1.83;;;;;;;12.48;100.00;101801.34;4981370;28;20415;-63
2021/03/27 08:10:44;;;;;;;9.70;1.95;;;;;;;12.55;100.00;101803.72;4981920;28;20034;-63
2021/03/27 08:13:33;;;;;;;6.57;1.95;;;;;;;12.72;100.00;101808.38;4977195;28;20042;-64
2021/03/27 08:16:29;;;;;;;6.43;1.63;;;;;;;12.67;100.00;101808.56;4980079;28;20034;-64
2021/03/27 08:19:26;;;;;;;21.07;3.07;;;;;;;12.67;100.00;101824.47;4980319;28;20047;-62
2021/03/27 08:22:11;;;;;;;13.18;2.72;;;;;;;12.54;100.00;101828.50;5039147;28;20175;-63
2021/03/27 08:24:39;;;;;;;12.27;1.90;;;;;;;12.56;100.00;101826.66;5034038;28;20037;-63
2021/03/27 08:27:28;;;;;;;7.40;2.10;;;;;;;12.69;100.00;101840.31;5039678;28;20490;-64
2021/03/27 08:30:31;;;;;;;18.25;2.17;;;;;;;12.65;100.00;101839.59;5032356;28;20033;-64
2021/03/27 08:33:09;;;;;;;19.35;2.38;;;;;;;12.87;100.00;101858.22;5023229;28;20040;-65
2021/03/27 08:36:10;;;;;;;11.55;1.98;;;;;;;13.00;100.00;101855.94;5034262;28;20035;-65
2021/03/27 08:39:13;;;;;;;9.65;2.65;;;;;;;12.77;100.00;101891.31;5031199;28;20426;-64
2021/03/27 08:42:03;;;;;;;9.27;3.15;;;;;;;12.66;100.00;101880.25;5037341;28;20028;-64
2021/03/27 08:45:00;;;;;;;8.88;2.10;;;;;;;12.56;100.00;101890.31;5031287;28;20033;-64
2021/03/27 08:47:49;;;;;;;11.18;2.83;;;;;;;12.60;100.00;101889.28;5011254;28;20509;-64
2021/03/27 08:50:29;;;;;;;18.20;3.35;;;;;;;13.07;100.00;101896.41;5029453;28;20061;-65
2021/03/27 08:53:10;;;;;;;10.45;1.73;;;;;;;13.15;100.00;101897.84;5034601;28;20110;-65
2021/03/27 08:55:44;;;;;;;9.43;1.60;;;;;;;13.18;100.00;101910.97;5032468;28;20122;-64
2021/03/27 08:58:28;;;;;;;6.70;1.58;;;;;;;13.27;100.00;101908.94;5036213;28;20025;-65
2021/03/27 09:01:03;;;;;;;8.35;1.63;;;;;;;13.28;100.00;101905.34;5030523;28;20567;-65
2021/03/27 09:03:54;;;;;;;7.30;1.73;;;;;;;13.52;100.00;101914.16;5035631;28;20026;-65
2021/03/27 09:06:25;;;;;;;10.57;2.88;;;;;;;13.56;100.00;101916.63;5035817;28;20068;-65
2021/03/27 09:09:14;;;;;;;6.43;1.98;;;;;;;13.46;100.00;101925.88;5014878;28;20037;-65
2021/03/27 09:11:59;;;;;;;6.75;2.08;;;;;;;13.47;100.00;101941.75;5031816;28;20079;-65
2021/03/27 09:14:32;;;;;;;8.97;2.57;;;;;;;13.46;100.00;101940.03;5032112;28;20029;-65
2021/03/27 09:17:21;;;;;;;9.20;4.13;;;;;;;13.39;100.00;101961.56;5037192;28;20063;-65
2021/03/27 09:20:21;;;;;;;14.05;4.82;;;;;;;13.40;100.00;101952.66;5029824;28;20112;-65
2021/03/27 09:22:57;;;;;;;16.23;6.03;;;;;;;13.36;100.00;101959.91;5035370;28;20048;-65
2021/03/27 09:25:33;;;;;;;17.13;8.63;;;;;;;13.38;100.00;101959.81;5032490;28;20025;-65
2021/03/27 09:28:22;;;;;;;17.33;9.85;;;;;;;13.46;100.00;101977.22;5029354;28;20554;-65
2021/03/27 09:31:04;;;;;;;24.45;11.40;;;;;;;13.46;100.00;101979.88;5031149;28;20079;-65
2021/03/27 09:33:37;;;;;;;31.05;15.98;;;;;;;13.50;100.00;101982.38;5038422;28;20085;-65
2021/03/27 09:36:24;;;;;;;33.78;15.18;;;;;;;13.51;100.00;101981.47;5029648;28;20041;-65
2021/03/27 09:39:08;;;;;;;38.15;17.35;;;;;;;13.62;100.00;102003.16;5031774;28;20036;-65
2021/03/27 09:42:08;;;;;;;40.08;20.08;;;;;;;13.62;100.00;101998.72;5030386;28;20041;-65
2021/03/27 09:44:53;;;;;;;48.90;23.55;;;;;;;13.70;100.00;102006.38;5029373;28;20025;-65
2021/03/27 09:47:55;;;;;;;51.65;24.58;;;;;;;13.74;100.00;102008.84;5018947;28;20025;-65
2021/03/27 09:50:37;;;;;;;55.60;26.83;;;;;;;13.74;100.00;102011.50;5025604;28;20021;-65
2021/03/27 09:53:16;;;;;;;51.05;25.83;;;;;;;13.75;100.00;102004.41;5027703;28;20029;-65
2021/03/27 09:56:06;;;;;;;58.55;30.88;;;;;;;13.63;100.00;102023.50;5027922;28;20052;-65
2021/03/27 09:58:43;;;;;;;64.50;28.95;;;;;;;13.62;100.00;102029.75;5025603;28;20028;-65
2021/03/27 10:01:35;;;;;;;61.92;32.92;;;;;;;13.87;100.00;102034.97;5033739;28;20040;-65
2021/03/27 10:04:22;;;;;;;68.38;36.42;;;;;;;13.91;100.00;102042.75;5018079;28;20079;-65
2021/03/27 10:07:06;;;;;;;;;;;;;;;13.92;100.00;102043.63;5032080;28;20099;-65
2021/03/27 10:10:08;;;;;;;82.55;41.97;;;;;;;13.92;100.00;102039.19;5026698;28;19923;-64
2021/03/27 10:13:21;;;;;;;75.00;43.38;;;;;;;14.03;100.00;102048.50;5031479;28;20045;-65
2021/03/27 10:15:57;;;;;;;89.97;47.03;;;;;;;14.13;100.00;102055.19;5021016;28;20247;-65
2021/03/27 10:18:41;;;;;;;;;;;;;;;14.16;100.00;102065.72;5034331;28;20037;-65
2021/03/27 10:21:35;;;;;;;95.90;51.13;;;;;;;14.19;100.00;102061.13;5032300;28;19968;-65
2021/03/27 10:24:31;;;;;;;96.82;50.92;;;;;;;14.19;100.00;102070.91;5019853;28;20053;-65
2021/03/27 10:27:24;;;;;;;106.60;54.22;;;;;;;14.33;100.00;102086.31;5035262;28;20818;-65
2021/03/27 10:30:03;;;;;;;121.10;58.75;;;;;;;14.17;100.00;102088.72;5031609;28;20767;-65
2021/03/27 10:32:31;;;;;;;116.38;58.72;;;;;;;14.36;100.00;102104.81;5031032;28;20087;-65
2021/03/27 10:35:24;;;;;;;109.13;56.25;;;;;;;14.36;100.00;102088.84;5037262;28;20061;-65
2021/03/27 10:38:08;;;;;;;100.22;54.97;;;;;;;14.23;100.00;102105.28;5030248;28;20128;-65
2021/03/27 10:40:43;;;;;;;102.35;52.92;;;;;;;14.45;100.00;102105.28;5037042;28;20593;-65
2021/03/27 10:43:22;;;;;;;90.80;46.53;;;;;;;14.65;100.00;102103.63;5030402;28;20037;-65
2021/03/27 10:46:14;;;;;;;86.60;44.92;;;;;;;14.89;100.00;102107.94;5032197;28;20033;-65
2021/03/27 10:49:14;;;;;;;75.35;40.03;;;;;;;14.89;100.00;102110.59;4993665;28;20033;-65
2021/03/27 10:52:12;;;;;;;68.70;38.65;;;;;;;15.21;100.00;102118.97;5033786;28;20037;-65
2021/03/27 10:55:02;;;;;;;68.47;37.90;;;;;;;15.51;100.00;102125.66;5036032;28;20028;-65
2021/03/27 10:58:09;;;;;;;64.20;32.42;;;;;;;15.40;100.00;102127.91;5035109;28;20683;-65
2021/03/27 11:01:12;;;;;;;53.00;28.38;;;;;;;15.62;100.00;102130.50;5028852;28;20119;-65
2021/03/27 11:04:03;;;;;;;53.47;29.20;;;;;;;16.09;100.00;102113.25;5029256;28;20052;-65
2021/03/27 11:07:07;;;;;;;50.22;26.92;;;;;;;16.63;100.00;102135.56;5034510;28;20025;-65
2021/03/27 11:10:03;;;;;;;41.03;21.75;;;;;;;16.72;84.57;102140.47;5035475;28;20032;-65
2021/03/27 11:13:02;;;;;;;38.92;19.98;;;;;;;17.02;81.85;102138.06;5034384;28;20033;-65
2021/03/27 11:16:18;;;;;;;38.15;21.70;;;;;;;16.27;85.02;102157.75;5034359;28;20029;-65
2021/03/27 11:19:30;;;;;;;32.35;17.95;;;;;;;15.96;86.02;102152.97;4999301;28;20048;-66
2021/03/27 11:22:31;;;;;;;32.70;16.60;;;;;;;17.31;82.09;102156.13;4960888;28;20113;-65
2021/03/27 11:25:31;;;;;;;30.20;14.73;;;;;;;17.93;78.24;102174.31;5035221;28;20029;-65
2021/03/27 11:28:11;;;;;;;30.23;13.85;;;;;;;18.66;73.04;102161.28;5034992;28;20032;-65
2021/03/27 11:30:55;;;;;;;23.45;12.05;;;;;;;18.78;68.72;102174.03;5035093;28;20673;-65
2021/03/27 11:33:29;;;;;;;23.05;10.65;;;;;;;19.36;64.73;102183.97;5043598;28;20027;-65
2021/03/27 11:36:10;;;;;;;19.90;10.00;;;;;;;19.88;61.23;102164.69;5036698;28;20026;-65
2021/03/27 11:38:44;;;;;;;21.85;9.18;;;;;;;19.89;61.04;102183.41;5035714;28;20030;-65
2021/03/27 11:41:18;;;;;;;22.10;8.02;;;;;;;19.08;60.58;102190.97;5038856;28;20021;-65
2021/03/27 11:44:17;;;;;;;22.60;7.97;;;;;;;20.40;53.49;102188.22;5033893;28;20025;-65
2021/03/27 11:46:55;;;;;;;15.77;7.15;;;;;;;20.58;50.71;102181.72;5033634;28;20020;-65
2021/03/27 11:49:42;;;;;;;12.60;6.30;;;;;;;21.12;48.02;102189.72;5032072;28;20136;-65
2021/03/27 11:52:25;;;;;;;13.50;5.00;;;;;;;21.14;45.80;102200.38;5028603;28;20040;-65
2021/03/27 11:55:17;;;;;;;13.90;5.40;;;;;;;21.40;44.10;102204.88;5036974;28;20048;-65
2021/03/27 11:59:41;;;;;;;18.88;6.28;;;;;;;19.28;49.14;102224.66;5020583;28;20655;-65
2021/03/27 12:01:32;;;;;;;15.85;5.45;;;;;;;20.32;46.35;102222.75;4982791;28;20034;-65
2021/03/27 12:04:15;;;;;;;15.73;5.05;;;;;;;21.70;42.80;102219.88;5031159;28;20044;-65
2021/03/27 12:07:19;;;;;;;11.52;4.45;;;;;;;20.93;43.02;102210.72;5034427;28;20614;-65
2021/03/27 12:10:03;;;;;;;20.40;4.70;;;;;;;20.88;42.96;102232.56;5020341;28;20571;-65
2021/03/27 12:12:56;;;;;;;12.88;4.22;;;;;;;18.72;47.40;102236.81;5034400;28;20108;-65
2021/03/27 12:15:41;;;;;;;9.35;3.60;;;;;;;19.89;44.59;102242.41;5037769;28;20840;-65
2021/03/27 12:18:07;;;;;;;47.50;5.38;;;;;;;21.07;42.42;102242.06;5030740;28;20037;-65
2021/03/27 12:20:40;;;;;;;11.63;3.70;;;;;;;23.28;37.31;102241.59;5036902;28;20430;-65
2021/03/27 12:23:36;;;;;;;8.95;3.20;;;;;;;22.21;37.51;102247.66;5040283;28;20041;-65
2021/03/27 12:26:14;;;;;;;10.55;3.85;;;;;;;22.27;37.86;102257.13;5037355;28;20405;-65
2021/03/27 12:29:03;;;;;;;10.57;3.50;;;;;;;23.55;34.44;102260.22;5041993;28;20110;-66
2021/03/27 12:32:04;;;;;;;8.70;3.65;;;;;;;23.26;34.35;102286.72;5038735;28;20033;-65
2021/03/27 12:34:34;;;;;;;11.35;2.95;;;;;;;23.36;34.53;102259.91;4979257;28;20045;-66